Other Surface Observations
Issued by NWS Great Falls, MT

Home | Current Version | Previous Version | Text Only | Print | Product List | Glossary On
Versions: 1 2 3 4 5 6 7 8 9 10 11 12 13 14 15 16 17 18 19 20 21 22 23 24 25 26 27 28 29 30 31 32 33 34 35 36 37 38 39 40 41 42 43 44 45 46 47 48 49 50
468
SXUS55 KTFX 090344
OSOTFX
AREA AWOS OBSERVATIONS
NATIONAL WEATHER SERVICE GREAT FALLS MT
0844 PM MST MON FEB 08 2016

METAR KPWD 090345Z AUTO 00000KT 10SM M01/M06 A3023 RMK PLENTYWOOD
METAR KPO1 090345Z AUTO 00000KT 10SM M01/M07 A3025 RMK POPLAR
METAR K1S3 090345Z AUTO 24004KT 10SM 05/M03 A3027 RMK FORSYTH
METAR KS71 090345Z AUTO 00000KT 10SM M01/M04 A3027 RMK CHINOOK
METAR K38S 090345Z AUTO 25003KT 10SM 01/M02 A3051 RMK DEER LODGE
METAR K3U3 090345Z AUTO 23003KT 10SM 02/M02 A3050 RMK ANACONDA
METAR K6S5 090345Z AUTO 00000KT 10SM 01/M02 A3052 RMK HAMILTON
METAR KS59 090345Z AUTO 00000KT 10SM M01/M04 A3054 RMK LIBBY



USA.gov is the U.S. government's official web portal to all federal, state and local government web resources and services.